This demonstration page uses our WeatherBlox Daily Observations layout. Learn more.

Left ArrowRight Arrow

Hourly Observations for April 27, 2020

Temp ( °F °C ) Dew Point ( °F °C ) Humidity (%) Winds ( mph kmh ) Pressure ( in mb ) Visibility ( mi km ) Precip ( " mm )
12:54 am 00:54 Clear 58 14.4 43 6.1 58 58 S 12 19 29.96 1014 10 16.0934 0 0
1:54 am 01:54 Clear 57 13.9 43 6.1 60 60 S 13 20 29.95 1014 10 16.0934 0 0
2:54 am 02:54 Clear 54 12.2 43 6.1 67 67 SSE 12 19 29.94 1014 10 16.0934 0 0
3:54 am 03:54 Clear 54 12.2 44 6.7 69 69 SSE 10 17 29.94 1014 10 16.0934 0 0
4:54 am 04:54 Clear 54 12.2 44 6.7 69 69 SSE 12 19 29.94 1014 10 16.0934 0 0
5:54 am 05:54 Clear 52 11.1 44 6.7 75 75 S 9 15 29.92 1013 10 16.0934 0 0
6:54 am 06:54 Sunny 50 10 44 6.7 80 80 S 6 9 29.93 1014 10 16.0934 0 0
7:54 am 07:54 Sunny 55 12.8 47 8.3 74 74 S 6 9 29.93 1014 10 16.0934 0 0
8:54 am 08:54 Sunny 64 17.8 48 8.9 56 56 S 12 19 29.91 1013 10 16.0934 0 0
9:54 am 09:54 Sunny 68 20 47 8.3 47 47 SSW 13 20 29.92 1013 10 16.0934 0 0
10:54 am 10:54 Sunny 71 21.7 47 8.3 42 42 SSW 10 17 29.9 1013 10 16.0934 0 0
11:54 am 11:54 Sunny 75 23.9 48 8.9 39 39 WSW 8 13 29.9 1013 10 16.0934 0 0
12:54 pm 12:54 Sunny 77 25 48 8.9 36 36 VRB 5 7 29.89 1012 10 16.0934 0 0
1:54 pm 13:54 Sunny 80 26.7 48 8.9 33 33 SW 9 15 29.85 1011 10 16.0934 0 0
2:54 pm 14:54 Sunny 83 28.3 45 7.2 26 26 N 3 6 29.84 1010 10 16.0934 0 0
3:54 pm 15:54 Sunny 82 27.8 45 7.2 27 27 Calm 29.82 1010 10 16.0934 0 0
4:54 pm 16:54 Sunny 83 28.3 46 7.8 27 27 E 6 9 29.8 1009 10 16.0934 0 0
5:54 pm 17:54 Sunny 82 27.8 46 7.8 28 28 NNE 5 7 29.8 1009 10 16.0934 0 0
6:54 pm 18:54 Sunny 81 27.2 49 9.4 33 33 SSE 5 7 29.8 1009 10 16.0934 0 0
7:54 pm 19:54 Sunny 75 23.9 50 10 41 41 SSE 12 19 29.79 1009 10 16.0934 0 0
8:54 pm 20:54 Mostly Cloudy 72 22.2 50 10 46 46 SSE 9 15 29.8 1009 10 16.0934 0 0
9:54 pm 21:54 Clear 66 18.9 51 10.6 59 59 undefined N/A 29.82 1010 10 16.0934 0 0
10:54 pm 22:54 Clear 65 18.3 52 11.1 63 63 SSE 10 17 29.82 1010 10 16.0934 0 0
11:54 pm 23:54 Clear 65 18.3 52 11.1 63 63 SSE 14 22 29.78 1009 10 16.0934 0 0

Powered by AerisWeather